sensor_id;sensor_type;location;lat;lon;timestamp;pressure;altitude;pressure_sealevel;temperature;humidity
4814;BME280;15375;48.540;9.268;2023-05-22T00:01:31;96957.53;;;13.66;100.00
4814;BME280;15375;48.540;9.268;2023-05-22T00:03:57;96939.91;;;13.55;100.00
4814;BME280;15375;48.540;9.268;2023-05-22T00:06:22;96955.22;;;13.65;100.00
4814;BME280;15375;48.540;9.268;2023-05-22T00:08:48;96943.31;;;13.59;100.00
4814;BME280;15375;48.540;9.268;2023-05-22T00:11:13;96956.44;;;13.64;100.00
4814;BME280;15375;48.540;9.268;2023-05-22T00:13:39;96956.28;;;13.67;100.00
4814;BME280;15375;48.540;9.268;2023-05-22T00:16:07;96943.44;;;13.55;100.00
4814;BME280;15375;48.540;9.268;2023-05-22T00:18:33;96937.88;;;13.46;100.00
4814;BME280;15375;48.540;9.268;2023-05-22T00:20:58;96942.59;;;13.46;100.00
4814;BME280;15375;48.540;9.268;2023-05-22T00:23:24;96958.22;;;13.58;100.00
4814;BME280;15375;48.540;9.268;2023-05-22T00:25:51;96926.72;;;13.40;100.00
4814;BME280;15375;48.540;9.268;2023-05-22T00:28:17;96925.19;;;13.39;100.00
4814;BME280;15375;48.540;9.268;2023-05-22T00:30:42;96936.91;;;13.40;100.00
4814;BME280;15375;48.540;9.268;2023-05-22T00:33:07;96907.88;;;13.21;100.00
4814;BME280;15375;48.540;9.268;2023-05-22T00:35:33;96905.69;;;13.16;100.00
4814;BME280;15375;48.540;9.268;2023-05-22T00:37:58;96926.03;;;13.27;100.00
4814;BME280;15375;48.540;9.268;2023-05-22T00:40:23;96933.91;;;13.25;100.00
4814;BME280;15375;48.540;9.268;2023-05-22T00:42:50;96931.94;;;13.26;100.00
4814;BME280;15375;48.540;9.268;2023-05-22T00:45:15;96916.50;;;13.19;100.00
4814;BME280;15375;48.540;9.268;2023-05-22T00:47:41;96935.25;;;13.21;100.00
4814;BME280;15375;48.540;9.268;2023-05-22T00:50:09;96924.41;;;13.17;100.00
4814;BME280;15375;48.540;9.268;2023-05-22T00:52:37;96947.72;;;13.22;100.00
4814;BME280;15375;48.540;9.268;2023-05-22T00:55:04;96925.25;;;12.93;100.00
4814;BME280;15375;48.540;9.268;2023-05-22T00:57:31;96931.28;;;12.88;100.00
4814;BME280;15375;48.540;9.268;2023-05-22T00:59:58;96892.91;;;12.66;100.00
4814;BME280;15375;48.540;9.268;2023-05-22T01:02:24;96934.22;;;12.93;100.00
4814;BME280;15375;48.540;9.268;2023-05-22T01:04:50;96931.81;;;12.95;100.00
4814;BME280;15375;48.540;9.268;2023-05-22T01:07:16;96948.22;;;13.08;100.00
4814;BME280;15375;48.540;9.268;2023-05-22T01:09:44;96931.03;;;12.95;100.00
4814;BME280;15375;48.540;9.268;2023-05-22T01:15:42;96943.19;;;13.06;100.00
4814;BME280;15375;48.540;9.268;2023-05-22T01:18:33;96956.09;;;13.06;100.00
4814;BME280;15375;48.540;9.268;2023-05-22T01:21:15;96952.16;;;13.07;100.00
4814;BME280;15375;48.540;9.268;2023-05-22T01:27:29;96958.94;;;13.02;100.00
4814;BME280;15375;48.540;9.268;2023-05-22T01:32:42;96960.94;;;12.89;100.00
4814;BME280;15375;48.540;9.268;2023-05-22T01:35:11;96959.09;;;12.86;100.00
4814;BME280;15375;48.540;9.268;2023-05-22T01:37:38;96964.56;;;12.86;100.00
4814;BME280;15375;48.540;9.268;2023-05-22T01:40:04;96962.50;;;12.77;100.00
4814;BME280;15375;48.540;9.268;2023-05-22T01:42:31;96964.13;;;12.75;100.00
4814;BME280;15375;48.540;9.268;2023-05-22T01:44:58;96971.56;;;12.74;100.00
4814;BME280;15375;48.540;9.268;2023-05-22T01:47:23;96946.75;;;12.56;100.00
4814;BME280;15375;48.540;9.268;2023-05-22T01:49:49;96956.81;;;12.59;100.00
4814;BME280;15375;48.540;9.268;2023-05-22T01:52:19;96979.25;;;12.67;100.00
4814;BME280;15375;48.540;9.268;2023-05-22T01:54:56;96950.16;;;12.35;100.00
4814;BME280;15375;48.540;9.268;2023-05-22T01:57:33;96992.84;;;12.58;100.00
4814;BME280;15375;48.540;9.268;2023-05-22T02:00:08;96973.78;;;12.42;100.00
4814;BME280;15375;48.540;9.268;2023-05-22T02:02:35;96988.22;;;12.55;100.00
4814;BME280;15375;48.540;9.268;2023-05-22T02:05:03;96967.44;;;12.32;100.00
4814;BME280;15375;48.540;9.268;2023-05-22T02:07:31;96971.50;;;12.40;100.00
4814;BME280;15375;48.540;9.268;2023-05-22T02:09:58;96981.13;;;12.45;100.00
4814;BME280;15375;48.540;9.268;2023-05-22T02:12:25;96982.31;;;12.44;100.00
4814;BME280;15375;48.540;9.268;2023-05-22T02:14:51;96983.75;;;12.48;100.00
4814;BME280;15375;48.540;9.268;2023-05-22T02:17:17;96983.84;;;12.45;100.00
4814;BME280;15375;48.540;9.268;2023-05-22T02:19:45;96976.84;;;12.44;100.00
4814;BME280;15375;48.540;9.268;2023-05-22T02:22:10;96952.44;;;12.24;100.00
4814;BME280;15375;48.540;9.268;2023-05-22T02:24:46;96976.75;;;12.47;100.00
4814;BME280;15375;48.540;9.268;2023-05-22T02:27:11;96950.25;;;12.19;100.00
4814;BME280;15375;48.540;9.268;2023-05-22T02:29:37;96989.78;;;12.31;100.00
4814;BME280;15375;48.540;9.268;2023-05-22T02:32:03;96947.28;;;12.01;100.00
4814;BME280;15375;48.540;9.268;2023-05-22T02:34:28;96946.88;;;12.02;100.00
4814;BME280;15375;48.540;9.268;2023-05-22T02:36:58;96981.03;;;12.23;100.00
4814;BME280;15375;48.540;9.268;2023-05-22T02:39:27;96959.13;;;12.10;100.00
4814;BME280;15375;48.540;9.268;2023-05-22T02:41:52;96965.16;;;12.18;100.00
4814;BME280;15375;48.540;9.268;2023-05-22T02:44:17;96943.28;;;12.05;100.00
4814;BME280;15375;48.540;9.268;2023-05-22T02:46:43;96954.53;;;12.20;100.00
4814;BME280;15375;48.540;9.268;2023-05-22T02:49:08;96959.47;;;12.25;100.00
4814;BME280;15375;48.540;9.268;2023-05-22T02:51:33;96927.84;;;12.11;100.00
4814;BME280;15375;48.540;9.268;2023-05-22T02:53:59;96981.78;;;12.49;100.00
4814;BME280;15375;48.540;9.268;2023-05-22T02:56:25;96964.50;;;12.39;100.00
4814;BME280;15375;48.540;9.268;2023-05-22T02:58:53;96978.63;;;12.38;100.00
4814;BME280;15375;48.540;9.268;2023-05-22T03:01:18;96982.66;;;12.46;100.00
4814;BME280;15375;48.540;9.268;2023-05-22T03:03:44;96973.91;;;12.38;100.00
4814;BME280;15375;48.540;9.268;2023-05-22T03:06:09;96994.16;;;12.53;100.00
4814;BME280;15375;48.540;9.268;2023-05-22T03:08:35;96986.16;;;12.59;100.00
4814;BME280;15375;48.540;9.268;2023-05-22T03:11:02;96992.50;;;12.68;100.00
4814;BME280;15375;48.540;9.268;2023-05-22T03:13:28;96973.91;;;12.63;100.00
4814;BME280;15375;48.540;9.268;2023-05-22T03:15:53;96988.31;;;12.64;100.00
4814;BME280;15375;48.540;9.268;2023-05-22T03:18:19;96992.16;;;12.66;100.00
4814;BME280;15375;48.540;9.268;2023-05-22T03:20:44;96979.38;;;12.51;100.00
4814;BME280;15375;48.540;9.268;2023-05-22T03:23:10;96961.09;;;12.23;100.00
4814;BME280;15375;48.540;9.268;2023-05-22T03:25:36;96974.88;;;12.32;100.00
4814;BME280;15375;48.540;9.268;2023-05-22T03:28:01;96985.50;;;12.42;100.00
4814;BME280;15375;48.540;9.268;2023-05-22T03:30:27;96999.41;;;12.48;100.00
4814;BME280;15375;48.540;9.268;2023-05-22T03:32:52;96980.47;;;12.41;100.00
4814;BME280;15375;48.540;9.268;2023-05-22T03:35:18;96990.31;;;12.51;100.00
4814;BME280;15375;48.540;9.268;2023-05-22T03:37:45;96999.06;;;12.58;100.00
4814;BME280;15375;48.540;9.268;2023-05-22T03:40:10;97002.13;;;12.60;100.00
4814;BME280;15375;48.540;9.268;2023-05-22T03:42:36;96997.75;;;12.63;100.00
4814;BME280;15375;48.540;9.268;2023-05-22T03:45:02;96978.16;;;12.52;100.00
4814;BME280;15375;48.540;9.268;2023-05-22T03:47:27;96991.63;;;12.59;100.00
4814;BME280;15375;48.540;9.268;2023-05-22T03:49:52;96998.06;;;12.65;100.00
4814;BME280;15375;48.540;9.268;2023-05-22T03:52:18;96990.75;;;12.62;100.00
4814;BME280;15375;48.540;9.268;2023-05-22T03:54:43;96992.50;;;12.68;100.00
4814;BME280;15375;48.540;9.268;2023-05-22T03:57:08;96986.13;;;12.71;100.00
4814;BME280;15375;48.540;9.268;2023-05-22T03:59:34;96980.56;;;12.75;100.00
4814;BME280;15375;48.540;9.268;2023-05-22T04:01:59;96982.19;;;12.85;100.00
4814;BME280;15375;48.540;9.268;2023-05-22T04:04:26;96981.72;;;12.87;100.00
4814;BME280;15375;48.540;9.268;2023-05-22T04:06:52;96983.16;;;12.91;100.00
4814;BME280;15375;48.540;9.268;2023-05-22T04:09:18;97000.78;;;13.03;100.00
4814;BME280;15375;48.540;9.268;2023-05-22T04:11:43;96988.41;;;13.11;100.00
4814;BME280;15375;48.540;9.268;2023-05-22T04:14:10;96970.91;;;13.08;100.00
4814;BME280;15375;48.540;9.268;2023-05-22T04:16:36;96966.06;;;13.12;100.00
4814;BME280;15375;48.540;9.268;2023-05-22T04:19:01;96978.50;;;13.26;100.00
4814;BME280;15375;48.540;9.268;2023-05-22T04:21:27;96983.28;;;13.34;100.00
4814;BME280;15375;48.540;9.268;2023-05-22T04:23:53;96974.63;;;13.36;100.00
4814;BME280;15375;48.540;9.268;2023-05-22T04:26:18;97002.81;;;13.58;100.00
4814;BME280;15375;48.540;9.268;2023-05-22T04:28:45;96985.34;;;13.65;100.00
4814;BME280;15375;48.540;9.268;2023-05-22T04:31:11;97005.13;;;13.81;100.00
4814;BME280;15375;48.540;9.268;2023-05-22T04:33:37;96992.25;;;13.91;100.00
4814;BME280;15375;48.540;9.268;2023-05-22T04:36:03;96979.88;;;13.86;100.00
4814;BME280;15375;48.540;9.268;2023-05-22T04:38:29;97005.19;;;14.12;100.00
4814;BME280;15375;48.540;9.268;2023-05-22T04:40:55;97006.72;;;14.35;100.00
4814;BME280;15375;48.540;9.268;2023-05-22T04:43:29;96991.97;;;14.50;100.00
4814;BME280;15375;48.540;9.268;2023-05-22T04:45:56;96997.22;;;14.66;100.00
4814;BME280;15375;48.540;9.268;2023-05-22T04:48:21;96986.91;;;14.80;100.00
4814;BME280;15375;48.540;9.268;2023-05-22T04:50:50;97010.91;;;14.97;100.00
4814;BME280;15375;48.540;9.268;2023-05-22T04:53:16;96999.75;;;14.92;100.00
4814;BME280;15375;48.540;9.268;2023-05-22T04:55:41;97009.28;;;15.27;100.00
4814;BME280;15375;48.540;9.268;2023-05-22T04:58:07;96998.03;;;15.52;100.00
4814;BME280;15375;48.540;9.268;2023-05-22T05:00:33;97002.16;;;15.48;100.00
4814;BME280;15375;48.540;9.268;2023-05-22T05:02:58;96995.75;;;15.60;100.00
4814;BME280;15375;48.540;9.268;2023-05-22T05:05:24;96997.28;;;15.70;100.00
4814;BME280;15375;48.540;9.268;2023-05-22T05:07:49;97002.88;;;15.93;100.00
4814;BME280;15375;48.540;9.268;2023-05-22T05:10:16;97015.56;;;16.09;100.00
4814;BME280;15375;48.540;9.268;2023-05-22T05:12:41;96989.78;;;15.79;100.00
4814;BME280;15375;48.540;9.268;2023-05-22T05:15:07;97005.06;;;16.58;100.00
4814;BME280;15375;48.540;9.268;2023-05-22T05:17:33;97002.97;;;17.10;100.00
4814;BME280;15375;48.540;9.268;2023-05-22T05:19:59;97013.78;;;16.90;100.00
4814;BME280;15375;48.540;9.268;2023-05-22T05:22:27;97006.25;;;17.23;100.00
4814;BME280;15375;48.540;9.268;2023-05-22T05:24:58;96996.22;;;17.97;98.98
4814;BME280;15375;48.540;9.268;2023-05-22T05:27:24;97003.88;;;18.95;93.11
4814;BME280;15375;48.540;9.268;2023-05-22T05:29:49;96998.94;;;20.25;81.15
4814;BME280;15375;48.540;9.268;2023-05-22T05:32:15;96991.31;;;19.95;79.71
4814;BME280;15375;48.540;9.268;2023-05-22T05:34:40;97001.94;;;19.76;84.57
4814;BME280;15375;48.540;9.268;2023-05-22T05:37:06;96999.81;;;20.68;75.36
4814;BME280;15375;48.540;9.268;2023-05-22T05:39:31;97004.16;;;21.65;72.15
4814;BME280;15375;48.540;9.268;2023-05-22T05:41:56;97018.06;;;22.74;69.15
4814;BME280;15375;48.540;9.268;2023-05-22T05:44:22;97003.31;;;24.79;57.37
4814;BME280;15375;48.540;9.268;2023-05-22T05:46:47;97010.19;;;26.49;54.02
4814;BME280;15375;48.540;9.268;2023-05-22T05:49:12;96995.13;;;28.28;48.98
4814;BME280;15375;48.540;9.268;2023-05-22T05:51:38;97014.06;;;27.23;49.78
4814;BME280;15375;48.540;9.268;2023-05-22T05:54:03;97005.25;;;27.71;47.39
4814;BME280;15375;48.540;9.268;2023-05-22T05:56:29;97016.56;;;27.79;48.79
4814;BME280;15375;48.540;9.268;2023-05-22T05:58:55;96998.81;;;28.78;45.49
4814;BME280;15375;48.540;9.268;2023-05-22T06:01:20;97018.69;;;29.49;43.76
4814;BME280;15375;48.540;9.268;2023-05-22T06:03:48;96999.34;;;30.10;44.45
4814;BME280;15375;48.540;9.268;2023-05-22T06:06:14;97009.47;;;31.32;40.64
4814;BME280;15375;48.540;9.268;2023-05-22T06:08:39;97014.38;;;31.54;40.16
4814;BME280;15375;48.540;9.268;2023-05-22T06:11:06;97035.31;;;28.44;45.91
4814;BME280;15375;48.540;9.268;2023-05-22T06:13:31;97004.41;;;27.50;46.91
4814;BME280;15375;48.540;9.268;2023-05-22T06:15:57;97015.31;;;28.61;47.04
4814;BME280;15375;48.540;9.268;2023-05-22T06:18:22;97008.47;;;28.35;48.41
4814;BME280;15375;48.540;9.268;2023-05-22T06:20:49;97008.38;;;27.81;48.41
4814;BME280;15375;48.540;9.268;2023-05-22T06:23:15;97043.53;;;27.69;50.24
4814;BME280;15375;48.540;9.268;2023-05-22T06:25:40;97034.53;;;29.19;48.20
4814;BME280;15375;48.540;9.268;2023-05-22T06:28:06;97016.34;;;30.40;43.84
4814;BME280;15375;48.540;9.268;2023-05-22T06:30:31;97034.94;;;29.71;45.33
4814;BME280;15375;48.540;9.268;2023-05-22T06:32:56;97035.84;;;29.38;46.87
4814;BME280;15375;48.540;9.268;2023-05-22T06:35:22;97035.09;;;28.96;46.38
4814;BME280;15375;48.540;9.268;2023-05-22T06:37:47;97042.00;;;27.42;50.78
4814;BME280;15375;48.540;9.268;2023-05-22T06:40:13;97055.47;;;26.29;55.24
4814;BME280;15375;48.540;9.268;2023-05-22T06:42:39;97052.69;;;24.90;59.35
4814;BME280;15375;48.540;9.268;2023-05-22T06:45:05;97040.28;;;23.07;67.60
4814;BME280;15375;48.540;9.268;2023-05-22T06:47:31;97054.44;;;21.78;76.53
4814;BME280;15375;48.540;9.268;2023-05-22T06:49:56;97013.72;;;21.58;79.25
4814;BME280;15375;48.540;9.268;2023-05-22T06:52:21;97037.44;;;22.18;76.60
4814;BME280;15375;48.540;9.268;2023-05-22T06:54:47;97033.91;;;22.29;74.48
4814;BME280;15375;48.540;9.268;2023-05-22T06:57:12;97001.50;;;21.87;74.78
4814;BME280;15375;48.540;9.268;2023-05-22T06:59:37;97044.28;;;22.34;75.88
4814;BME280;15375;48.540;9.268;2023-05-22T07:02:03;97031.94;;;22.57;74.58
4814;BME280;15375;48.540;9.268;2023-05-22T07:04:28;97029.44;;;22.70;73.35
4814;BME280;15375;48.540;9.268;2023-05-22T07:06:54;97033.72;;;23.10;75.12
4814;BME280;15375;48.540;9.268;2023-05-22T07:09:19;97009.09;;;23.47;72.97
4814;BME280;15375;48.540;9.268;2023-05-22T07:11:45;97042.28;;;23.23;75.00
4814;BME280;15375;48.540;9.268;2023-05-22T07:14:10;96995.00;;;23.23;69.86
4814;BME280;15375;48.540;9.268;2023-05-22T07:16:40;97030.44;;;23.01;70.95
4814;BME280;15375;48.540;9.268;2023-05-22T07:19:06;97050.38;;;23.21;71.36
4814;BME280;15375;48.540;9.268;2023-05-22T07:21:33;97029.41;;;23.15;72.20
4814;BME280;15375;48.540;9.268;2023-05-22T07:24:00;97047.59;;;23.38;71.34
4814;BME280;15375;48.540;9.268;2023-05-22T07:26:32;97036.97;;;23.31;72.03
4814;BME280;15375;48.540;9.268;2023-05-22T07:28:57;97039.47;;;23.34;72.43
4814;BME280;15375;48.540;9.268;2023-05-22T07:31:22;97049.75;;;23.73;70.81
4814;BME280;15375;48.540;9.268;2023-05-22T07:33:48;97036.75;;;23.92;70.37
4814;BME280;15375;48.540;9.268;2023-05-22T07:36:13;97030.69;;;24.40;66.86
4814;BME280;15375;48.540;9.268;2023-05-22T07:38:38;97034.28;;;24.70;66.44
4814;BME280;15375;48.540;9.268;2023-05-22T07:41:04;97039.91;;;24.64;65.79
4814;BME280;15375;48.540;9.268;2023-05-22T07:43:29;97022.91;;;25.27;60.85
4814;BME280;15375;48.540;9.268;2023-05-22T07:45:55;97031.81;;;24.96;62.20
4814;BME280;15375;48.540;9.268;2023-05-22T07:48:20;97034.81;;;24.33;65.47
4814;BME280;15375;48.540;9.268;2023-05-22T07:50:46;97023.38;;;24.72;66.43
4814;BME280;15375;48.540;9.268;2023-05-22T07:53:11;97026.97;;;25.51;60.23
4814;BME280;15375;48.540;9.268;2023-05-22T07:55:37;97034.47;;;25.61;60.87
4814;BME280;15375;48.540;9.268;2023-05-22T07:58:03;97008.94;;;26.13;62.15
4814;BME280;15375;48.540;9.268;2023-05-22T08:00:29;97022.75;;;26.43;56.38
4814;BME280;15375;48.540;9.268;2023-05-22T08:02:55;97030.47;;;25.57;60.23
4814;BME280;15375;48.540;9.268;2023-05-22T08:05:20;97053.25;;;25.36;64.45
4814;BME280;15375;48.540;9.268;2023-05-22T08:07:46;97039.91;;;25.24;64.58
4814;BME280;15375;48.540;9.268;2023-05-22T08:10:17;97038.47;;;25.42;64.37
4814;BME280;15375;48.540;9.268;2023-05-22T08:12:42;97054.63;;;25.24;65.11
4814;BME280;15375;48.540;9.268;2023-05-22T08:15:08;97050.50;;;24.71;66.93
4814;BME280;15375;48.540;9.268;2023-05-22T08:17:33;97050.19;;;24.40;69.55
4814;BME280;15375;48.540;9.268;2023-05-22T08:19:59;97052.59;;;24.60;70.21
4814;BME280;15375;48.540;9.268;2023-05-22T08:22:24;97042.94;;;24.66;68.57
4814;BME280;15375;48.540;9.268;2023-05-22T08:24:50;97052.91;;;24.56;69.39
4814;BME280;15375;48.540;9.268;2023-05-22T08:27:15;96979.41;;;23.67;72.38
4814;BME280;15375;48.540;9.268;2023-05-22T08:29:40;97044.38;;;24.43;70.64
4814;BME280;15375;48.540;9.268;2023-05-22T08:32:06;97027.75;;;24.62;67.52
4814;BME280;15375;48.540;9.268;2023-05-22T08:34:31;97037.81;;;24.35;69.38
4814;BME280;15375;48.540;9.268;2023-05-22T08:36:57;97046.56;;;24.15;71.31
4814;BME280;15375;48.540;9.268;2023-05-22T08:39:23;97048.72;;;24.39;70.48
4814;BME280;15375;48.540;9.268;2023-05-22T08:41:49;97027.38;;;24.47;69.85
4814;BME280;15375;48.540;9.268;2023-05-22T08:44:14;97034.19;;;24.87;69.46
4814;BME280;15375;48.540;9.268;2023-05-22T08:46:40;97043.59;;;24.84;68.57
4814;BME280;15375;48.540;9.268;2023-05-22T08:49:08;97028.91;;;24.78;66.60
4814;BME280;15375;48.540;9.268;2023-05-22T08:51:38;97046.47;;;25.02;70.63
4814;BME280;15375;48.540;9.268;2023-05-22T08:54:05;97046.09;;;25.41;66.63
4814;BME280;15375;48.540;9.268;2023-05-22T08:56:34;97002.97;;;25.61;64.29
4814;BME280;15375;48.540;9.268;2023-05-22T08:59:00;97010.66;;;26.35;63.79
4814;BME280;15375;48.540;9.268;2023-05-22T09:01:30;97033.53;;;25.77;61.94
4814;BME280;15375;48.540;9.268;2023-05-22T09:04:00;96980.25;;;26.13;60.84
4814;BME280;15375;48.540;9.268;2023-05-22T09:06:27;97000.19;;;26.22;59.69
4814;BME280;15375;48.540;9.268;2023-05-22T09:09:03;97038.63;;;26.85;58.30
4814;BME280;15375;48.540;9.268;2023-05-22T09:11:28;97024.44;;;27.54;55.35
4814;BME280;15375;48.540;9.268;2023-05-22T09:14:07;97029.13;;;27.20;56.88
4814;BME280;15375;48.540;9.268;2023-05-22T09:16:43;97026.00;;;26.79;54.26
4814;BME280;15375;48.540;9.268;2023-05-22T09:19:08;97032.44;;;26.74;54.97
4814;BME280;15375;48.540;9.268;2023-05-22T09:21:35;96992.81;;;27.14;51.93
4814;BME280;15375;48.540;9.268;2023-05-22T09:24:01;97009.44;;;26.49;53.69
4814;BME280;15375;48.540;9.268;2023-05-22T09:26:27;97023.75;;;26.77;52.91
4814;BME280;15375;48.540;9.268;2023-05-22T09:28:53;97010.97;;;27.53;52.26
4814;BME280;15375;48.540;9.268;2023-05-22T09:31:18;97022.38;;;27.55;52.29
4814;BME280;15375;48.540;9.268;2023-05-22T09:33:44;97019.91;;;27.77;54.43
4814;BME280;15375;48.540;9.268;2023-05-22T09:36:10;97019.13;;;27.90;53.50
4814;BME280;15375;48.540;9.268;2023-05-22T09:38:35;97026.75;;;27.11;56.99
4814;BME280;15375;48.540;9.268;2023-05-22T09:41:01;97023.56;;;27.72;54.13
4814;BME280;15375;48.540;9.268;2023-05-22T09:43:27;97025.38;;;27.96;52.61
4814;BME280;15375;48.540;9.268;2023-05-22T09:45:57;97019.13;;;27.77;53.00
4814;BME280;15375;48.540;9.268;2023-05-22T09:48:24;97030.59;;;27.79;55.13
4814;BME280;15375;48.540;9.268;2023-05-22T09:50:52;97015.91;;;27.86;52.77
4814;BME280;15375;48.540;9.268;2023-05-22T09:53:18;97022.19;;;27.79;53.98
4814;BME280;15375;48.540;9.268;2023-05-22T09:55:49;97013.44;;;27.82;54.93
4814;BME280;15375;48.540;9.268;2023-05-22T09:58:17;97020.50;;;28.10;54.28
4814;BME280;15375;48.540;9.268;2023-05-22T10:00:44;97007.41;;;27.92;52.83
4814;BME280;15375;48.540;9.268;2023-05-22T10:03:10;97020.09;;;28.06;54.68
4814;BME280;15375;48.540;9.268;2023-05-22T10:05:44;97011.69;;;27.79;57.03
4814;BME280;15375;48.540;9.268;2023-05-22T10:08:17;97018.69;;;28.12;55.25
4814;BME280;15375;48.540;9.268;2023-05-22T10:10:46;97013.84;;;28.46;55.03
4814;BME280;15375;48.540;9.268;2023-05-22T10:13:15;96976.13;;;28.55;52.95
4814;BME280;15375;48.540;9.268;2023-05-22T10:15:40;97010.63;;;28.09;54.88
4814;BME280;15375;48.540;9.268;2023-05-22T10:18:06;96998.00;;;28.36;52.91
4814;BME280;15375;48.540;9.268;2023-05-22T10:20:32;97015.06;;;28.04;53.87
4814;BME280;15375;48.540;9.268;2023-05-22T10:23:01;97017.28;;;28.19;54.09
4814;BME280;15375;48.540;9.268;2023-05-22T10:25:27;97002.88;;;27.89;53.51
4814;BME280;15375;48.540;9.268;2023-05-22T10:27:53;96997.88;;;28.08;50.92
4814;BME280;15375;48.540;9.268;2023-05-22T10:33:03;97002.47;;;28.31;54.38
4814;BME280;15375;48.540;9.268;2023-05-22T10:36:25;96995.28;;;28.43;52.16
4814;BME280;15375;48.540;9.268;2023-05-22T10:41:17;96989.94;;;28.53;53.35
4814;BME280;15375;48.540;9.268;2023-05-22T10:43:43;96993.56;;;28.74;50.88
4814;BME280;15375;48.540;9.268;2023-05-22T10:46:12;96992.56;;;29.13;53.13
4814;BME280;15375;48.540;9.268;2023-05-22T10:48:39;96981.13;;;29.11;52.88
4814;BME280;15375;48.540;9.268;2023-05-22T10:51:07;96987.50;;;28.91;52.17
4814;BME280;15375;48.540;9.268;2023-05-22T10:53:34;96984.19;;;28.92;49.92
4814;BME280;15375;48.540;9.268;2023-05-22T10:56:09;96980.84;;;28.60;52.08
4814;BME280;15375;48.540;9.268;2023-05-22T10:58:35;96974.72;;;28.82;53.54
4814;BME280;15375;48.540;9.268;2023-05-22T11:01:07;96969.44;;;29.20;50.69
4814;BME280;15375;48.540;9.268;2023-05-22T11:06:40;96973.34;;;28.96;48.67
4814;BME280;15375;48.540;9.268;2023-05-22T11:11:46;96960.41;;;28.93;49.05
4814;BME280;15375;48.540;9.268;2023-05-22T11:14:15;96961.94;;;28.74;50.09
4814;BME280;15375;48.540;9.268;2023-05-22T11:16:41;96944.75;;;28.23;49.06
4814;BME280;15375;48.540;9.268;2023-05-22T11:19:08;96949.13;;;28.11;49.14
4814;BME280;15375;48.540;9.268;2023-05-22T11:21:43;96949.31;;;28.46;51.65
4814;BME280;15375;48.540;9.268;2023-05-22T11:24:09;96945.28;;;28.76;50.18
4814;BME280;15375;48.540;9.268;2023-05-22T11:26:36;96948.91;;;28.84;49.07
4814;BME280;15375;48.540;9.268;2023-05-22T11:29:06;96922.75;;;28.89;48.81
4814;BME280;15375;48.540;9.268;2023-05-22T11:31:32;96930.91;;;28.79;48.42
4814;BME280;15375;48.540;9.268;2023-05-22T11:33:57;96939.09;;;28.15;52.61
4814;BME280;15375;48.540;9.268;2023-05-22T11:36:23;96929.81;;;27.73;51.68
4814;BME280;15375;48.540;9.268;2023-05-22T11:38:49;96929.94;;;27.42;52.22
4814;BME280;15375;48.540;9.268;2023-05-22T11:41:14;96917.09;;;27.59;52.57
4814;BME280;15375;48.540;9.268;2023-05-22T11:43:41;96935.94;;;27.72;52.06
4814;BME280;15375;48.540;9.268;2023-05-22T11:46:08;96916.47;;;27.66;53.10
4814;BME280;15375;48.540;9.268;2023-05-22T11:48:35;96906.03;;;27.88;53.31
4814;BME280;15375;48.540;9.268;2023-05-22T11:51:01;96904.81;;;27.62;50.76
4814;BME280;15375;48.540;9.268;2023-05-22T11:53:28;96904.38;;;27.71;52.37
4814;BME280;15375;48.540;9.268;2023-05-22T11:56:00;96903.53;;;27.63;52.30
4814;BME280;15375;48.540;9.268;2023-05-22T11:58:26;96912.69;;;27.64;51.45
4814;BME280;15375;48.540;9.268;2023-05-22T12:00:57;96912.31;;;27.80;52.04
4814;BME280;15375;48.540;9.268;2023-05-22T12:03:22;96916.09;;;27.83;51.49
4814;BME280;15375;48.540;9.268;2023-05-22T12:05:49;96891.78;;;27.65;48.82
4814;BME280;15375;48.540;9.268;2023-05-22T12:08:15;96925.13;;;27.89;50.09
4814;BME280;15375;48.540;9.268;2023-05-22T12:10:45;96921.56;;;28.22;51.10
4814;BME280;15375;48.540;9.268;2023-05-22T12:13:11;96905.25;;;28.34;46.29
4814;BME280;15375;48.540;9.268;2023-05-22T12:15:37;96892.13;;;28.29;47.09
4814;BME280;15375;48.540;9.268;2023-05-22T12:18:07;96903.94;;;28.14;47.21
4814;BME280;15375;48.540;9.268;2023-05-22T12:20:33;96881.78;;;28.44;45.28
4814;BME280;15375;48.540;9.268;2023-05-22T12:22:58;96869.66;;;27.74;45.94
4814;BME280;15375;48.540;9.268;2023-05-22T12:25:32;96894.66;;;27.72;47.91
4814;BME280;15375;48.540;9.268;2023-05-22T12:27:57;96901.94;;;27.55;47.40
4814;BME280;15375;48.540;9.268;2023-05-22T12:30:23;96906.59;;;27.86;50.57
4814;BME280;15375;48.540;9.268;2023-05-22T12:32:51;96899.53;;;28.06;50.45
4814;BME280;15375;48.540;9.268;2023-05-22T12:35:17;96902.56;;;28.28;47.15
4814;BME280;15375;48.540;9.268;2023-05-22T12:37:50;96909.91;;;28.52;50.75
4814;BME280;15375;48.540;9.268;2023-05-22T12:40:16;96897.53;;;28.96;47.48
4814;BME280;15375;48.540;9.268;2023-05-22T12:42:41;96891.66;;;28.87;43.38
4814;BME280;15375;48.540;9.268;2023-05-22T12:45:07;96899.66;;;28.83;46.00
4814;BME280;15375;48.540;9.268;2023-05-22T12:47:32;96904.03;;;28.91;46.14
4814;BME280;15375;48.540;9.268;2023-05-22T12:49:58;96897.38;;;29.02;45.78
4814;BME280;15375;48.540;9.268;2023-05-22T12:52:23;96896.28;;;29.05;44.55
4814;BME280;15375;48.540;9.268;2023-05-22T12:54:49;96902.47;;;28.83;43.73
4814;BME280;15375;48.540;9.268;2023-05-22T12:57:15;96862.78;;;28.58;45.22
4814;BME280;15375;48.540;9.268;2023-05-22T12:59:41;96906.31;;;29.21;46.67
4814;BME280;15375;48.540;9.268;2023-05-22T13:02:08;96872.88;;;29.38;44.91
4814;BME280;15375;48.540;9.268;2023-05-22T13:04:34;96892.31;;;29.72;43.66
4814;BME280;15375;48.540;9.268;2023-05-22T13:06:59;96892.59;;;29.53;44.09
4814;BME280;15375;48.540;9.268;2023-05-22T13:09:25;96878.06;;;29.27;45.24
4814;BME280;15375;48.540;9.268;2023-05-22T13:11:50;96875.91;;;29.40;43.72
4814;BME280;15375;48.540;9.268;2023-05-22T13:14:15;96874.03;;;29.43;43.18
4814;BME280;15375;48.540;9.268;2023-05-22T13:16:41;96886.97;;;29.46;44.14
4814;BME280;15375;48.540;9.268;2023-05-22T13:19:07;96887.34;;;29.14;43.93
4814;BME280;15375;48.540;9.268;2023-05-22T13:21:32;96892.16;;;29.06;47.86
4814;BME280;15375;48.540;9.268;2023-05-22T13:23:58;96904.00;;;29.40;46.87
4814;BME280;15375;48.540;9.268;2023-05-22T13:26:23;96885.81;;;29.41;47.02